createdAt,value
2018-11-04T00:02:41.189Z,88.25
2018-11-04T00:06:45.136Z,89.06
2018-11-04T00:10:49.280Z,89.59
2018-11-04T00:14:53.218Z,90.17
2018-11-04T00:18:57.365Z,89.15
2018-11-04T00:23:01.309Z,89.17
2018-11-04T00:27:05.695Z,89.18
2018-11-04T00:31:09.904Z,89.90
2018-11-04T00:35:13.756Z,88.84
2018-11-04T00:39:18.304Z,87.90
2018-11-04T00:43:22.196Z,89.71
2018-11-04T00:47:27.520Z,89.38
2018-11-04T00:51:31.420Z,89.26
2018-11-04T00:55:35.271Z,88.66
2018-11-04T00:59:40.864Z,88.80
2018-11-04T01:03:45.281Z,89.27
2018-11-04T01:07:49.671Z,90.12
2018-11-04T01:11:54.329Z,90.70
2018-11-04T01:15:58.659Z,90.10
2018-11-04T01:20:02.868Z,89.81
2018-11-04T01:24:07.136Z,89.85
2018-11-04T01:28:11.553Z,90.98
2018-11-04T01:32:17.274Z,90.62
2018-11-04T01:36:22.053Z,90.62
2018-11-04T01:40:26.276Z,90.83
2018-11-04T01:44:31.223Z,90.75
2018-11-04T01:48:35.560Z,90.88
2018-11-04T01:52:39.924Z,90.42
2018-11-04T01:56:44.363Z,90.17
2018-11-04T02:00:48.993Z,90.43
2018-11-04T02:04:53.224Z,89.48
2018-11-04T02:08:58.033Z,89.85
2018-11-04T02:13:02.382Z,90.05
2018-11-04T02:17:06.536Z,90.10
2018-11-04T02:21:10.667Z,90.75
2018-11-04T02:25:15.097Z,90.45
2018-11-04T02:29:19.364Z,90.96
2018-11-04T02:33:24.067Z,90.89
2018-11-04T02:37:28.145Z,91.18
2018-11-04T02:41:32.519Z,90.42
2018-11-04T02:45:36.640Z,90.15
2018-11-04T02:49:41.781Z,89.74
2018-11-04T02:53:45.920Z,89.87
2018-11-04T02:57:50.510Z,90.20
2018-11-04T03:01:54.664Z,90.26
2018-11-04T03:05:58.701Z,90.91
2018-11-04T03:10:02.998Z,90.96
2018-11-04T03:14:07.127Z,91.13
2018-11-04T03:18:11.486Z,90.76
2018-11-04T03:22:15.872Z,90.15
2018-11-04T03:26:20.101Z,89.57
2018-11-04T03:30:24.293Z,90.68
2018-11-04T03:34:28.721Z,91.73
2018-11-04T03:38:32.795Z,91.60
2018-11-04T03:42:36.869Z,91.75
2018-11-04T03:46:41.168Z,90.85
2018-11-04T03:50:45.809Z,91.36
2018-11-04T03:54:50.285Z,91.12
2018-11-04T03:58:55.146Z,91.65
2018-11-04T04:02:59.773Z,91.53
2018-11-04T04:07:05.579Z,91.83
2018-11-04T04:11:09.949Z,91.37
2018-11-04T04:15:15.480Z,92.10
2018-11-04T04:19:19.572Z,91.76
2018-11-04T04:23:23.611Z,92.01
2018-11-04T04:27:27.939Z,91.39
2018-11-04T04:31:32.382Z,91.80
2018-11-04T04:35:36.530Z,92.14
2018-11-04T04:39:40.998Z,92.10
2018-11-04T04:43:45.027Z,91.77
2018-11-04T04:47:49.089Z,92.32
2018-11-04T04:51:53.136Z,92.46
2018-11-04T04:55:58.050Z,92.39
2018-11-04T05:00:02.135Z,92.48
2018-11-04T05:04:06.290Z,92.46
2018-11-04T05:08:10.941Z,92.72
2018-11-04T05:12:15.025Z,92.13
2018-11-04T05:16:19.160Z,91.80
2018-11-04T05:20:23.390Z,91.15
2018-11-04T05:24:27.896Z,92.41
2018-11-04T05:28:31.935Z,92.70
2018-11-04T05:32:35.972Z,92.27
2018-11-04T05:36:39.953Z,92.20
2018-11-04T05:40:43.981Z,93.14
2018-11-04T05:44:47.984Z,92.51
2018-11-04T05:48:51.985Z,92.43
2018-11-04T05:52:56.646Z,92.47
2018-11-04T05:57:00.690Z,92.22
2018-11-04T06:01:05.856Z,92.94
2018-11-04T06:05:11.133Z,92.66
2018-11-04T06:09:15.029Z,92.32
2018-11-04T06:13:18.912Z,91.90
2018-11-04T06:17:23.225Z,91.18
2018-11-04T06:21:27.065Z,91.66
2018-11-04T06:25:31.184Z,90.76
2018-11-04T06:29:35.323Z,91.21
2018-11-04T06:33:39.583Z,91.81
2018-11-04T06:37:43.644Z,91.45
2018-11-04T06:41:47.667Z,91.33
2018-11-04T06:45:51.954Z,92.47
2018-11-04T06:49:56.261Z,91.64
2018-11-04T06:54:00.375Z,92.11
2018-11-04T06:58:05.396Z,92.41
2018-11-04T07:02:09.726Z,93.31
2018-11-04T07:06:13.934Z,92.76
2018-11-04T07:10:18.321Z,93.13
2018-11-04T07:14:22.591Z,92.92
2018-11-04T07:18:27.117Z,93.23
2018-11-04T07:22:31.276Z,92.59
2018-11-04T07:26:36.053Z,92.83
2018-11-04T07:30:40.040Z,93.79
2018-11-04T07:34:44.054Z,93.56
2018-11-04T07:38:48.024Z,93.79
2018-11-04T07:42:52.277Z,93.81
2018-11-04T07:46:56.446Z,94.00
2018-11-04T07:51:00.886Z,92.87
2018-11-04T07:55:08.231Z,92.17
2018-11-04T07:59:12.574Z,91.73
2018-11-04T08:03:16.771Z,92.10
2018-11-04T08:07:20.776Z,90.37
2018-11-04T08:11:24.728Z,87.99
2018-11-04T08:15:29.263Z,86.98
2018-11-04T08:19:33.349Z,87.49
2018-11-04T08:23:37.747Z,87.58
2018-11-04T08:27:41.888Z,88.51
2018-11-04T08:31:46.773Z,88.07
2018-11-04T08:35:50.813Z,87.00
2018-11-04T08:39:55.247Z,86.66
2018-11-04T08:44:00.421Z,86.29
2018-11-04T08:48:05.394Z,84.18
2018-11-04T08:52:09.368Z,83.34
2018-11-04T08:56:13.326Z,85.11
2018-11-04T09:00:17.433Z,82.76
2018-11-04T09:04:21.731Z,83.83
2018-11-04T09:08:26.641Z,83.35
2018-11-04T09:12:30.644Z,82.53
2018-11-04T09:16:34.625Z,78.12
2018-11-04T09:20:38.592Z,76.13
2018-11-04T09:24:42.566Z,71.85
2018-11-04T09:28:46.670Z,70.01
2018-11-04T09:32:50.648Z,67.09
2018-11-04T09:36:54.719Z,62.57
2018-11-04T09:40:58.800Z,58.26
2018-11-04T09:45:02.883Z,58.82
2018-11-04T09:49:07.256Z,58.78
2018-11-04T09:53:11.363Z,53.55
2018-11-04T09:57:15.792Z,54.13
2018-11-04T10:01:19.862Z,52.99
2018-11-04T10:05:28.554Z,49.19
2018-11-04T10:09:34.463Z,49.90
2018-11-04T10:13:40.087Z,47.37
2018-11-04T10:17:46.211Z,51.15
2018-11-04T10:21:52.607Z,47.42
2018-11-04T10:25:57.359Z,46.56
2018-11-04T10:30:01.286Z,47.25
2018-11-04T10:34:05.643Z,45.42
2018-11-04T10:38:09.757Z,42.50
2018-11-04T10:42:15.447Z,39.89
2018-11-04T10:46:20.687Z,42.20
2018-11-04T10:50:24.897Z,41.03
2018-11-04T10:54:29.792Z,41.29
2018-11-04T10:58:35.420Z,40.21
2018-11-04T11:02:40.042Z,41.88
2018-11-04T11:06:45.146Z,40.92
2018-11-04T11:10:49.073Z,40.42
2018-11-04T11:14:52.979Z,41.88
2018-11-04T11:18:56.886Z,40.78
2018-11-04T11:23:01.093Z,40.94
2018-11-04T11:27:05.419Z,40.52
2018-11-04T11:31:09.336Z,38.96
2018-11-04T11:35:13.213Z,39.43
2018-11-04T11:39:17.400Z,41.16
2018-11-04T11:43:21.290Z,40.89
2018-11-04T11:47:25.996Z,40.50
2018-11-04T11:51:32.383Z,39.71
2018-11-04T11:55:36.768Z,40.09
2018-11-04T11:59:43.117Z,39.43
2018-11-04T12:03:48.644Z,39.19
2018-11-04T12:07:52.594Z,40.66
2018-11-04T12:11:57.230Z,39.27
2018-11-04T12:16:01.207Z,38.55
2018-11-04T12:20:07.524Z,38.28
2018-11-04T12:24:11.511Z,37.23
2018-11-04T12:28:15.478Z,38.87
2018-11-04T12:32:19.991Z,36.56
2018-11-04T12:36:23.859Z,35.84
2018-11-04T12:40:27.787Z,36.16
2018-11-04T12:44:31.853Z,34.00
2018-11-04T12:48:36.536Z,31.26
2018-11-04T12:52:41.047Z,31.90
2018-11-04T12:56:44.936Z,31.31
2018-11-04T13:00:48.814Z,33.55
2018-11-04T13:04:52.821Z,33.79
2018-11-04T13:08:56.696Z,33.47
2018-11-04T13:13:00.612Z,31.58
2018-11-04T13:17:04.952Z,30.23
2018-11-04T13:21:09.094Z,31.54
2018-11-04T13:25:12.982Z,32.73
2018-11-04T13:29:16.941Z,33.84
2018-11-04T13:33:20.967Z,38.88
2018-11-04T13:37:25.195Z,36.68
2018-11-04T13:41:29.092Z,33.28
2018-11-04T13:45:33.984Z,33.14
2018-11-04T13:49:38.436Z,34.56
2018-11-04T13:53:42.563Z,34.27
2018-11-04T13:57:46.431Z,40.70
2018-11-04T14:01:50.484Z,44.08
2018-11-04T14:05:54.389Z,46.58
2018-11-04T14:09:58.588Z,48.07
2018-11-04T14:14:03.289Z,48.85
2018-11-04T14:18:07.200Z,50.70
2018-11-04T14:22:11.764Z,51.40
2018-11-04T14:26:15.671Z,51.35
2018-11-04T14:30:19.716Z,52.40
2018-11-04T14:34:23.572Z,54.45
2018-11-04T14:38:27.812Z,55.79
2018-11-04T14:42:31.842Z,55.78
2018-11-04T14:46:36.184Z,56.50
2018-11-04T14:50:40.029Z,55.72
2018-11-04T14:54:44.022Z,58.37
2018-11-04T14:58:48.294Z,57.76
2018-11-04T15:02:52.112Z,58.79
2018-11-04T15:06:56.032Z,58.87
2018-11-04T15:10:59.948Z,59.53
2018-11-04T15:15:08.286Z,59.86
2018-11-04T15:19:12.230Z,61.56
2018-11-04T15:23:16.079Z,61.93
2018-11-04T15:27:19.980Z,61.62
2018-11-04T15:31:23.918Z,61.94
2018-11-04T15:35:28.112Z,62.97
2018-11-04T15:39:31.988Z,62.65
2018-11-04T15:43:35.872Z,62.14
2018-11-04T15:47:40.195Z,62.94
2018-11-04T15:51:44.158Z,62.95
2018-11-04T15:55:48.291Z,64.18
2018-11-04T15:59:52.162Z,64.49
2018-11-04T16:03:56.046Z,65.12
2018-11-04T16:07:59.999Z,64.91
2018-11-04T16:12:03.860Z,65.06
2018-11-04T16:16:07.770Z,65.17
2018-11-04T16:20:13.053Z,66.42
2018-11-04T16:24:16.969Z,67.77
2018-11-04T16:28:21.097Z,68.63
2018-11-04T16:32:25.016Z,67.47
2018-11-04T16:36:29.318Z,68.29
2018-11-04T16:40:33.262Z,68.50
2018-11-04T16:44:37.251Z,69.88
2018-11-04T16:48:41.091Z,70.62
2018-11-04T16:52:45.850Z,72.36
2018-11-04T16:56:49.752Z,71.72
2018-11-04T17:00:54.020Z,73.62
2018-11-04T17:04:57.992Z,72.92
2018-11-04T17:09:03.306Z,71.77
2018-11-04T17:13:07.265Z,73.30
2018-11-04T17:17:11.583Z,73.81
2018-11-04T17:21:15.450Z,75.52
2018-11-04T17:25:24.039Z,75.32
2018-11-04T17:29:31.050Z,74.86
2018-11-04T17:33:35.387Z,75.79
2018-11-04T17:37:40.421Z,76.23
2018-11-04T17:41:44.502Z,76.40
2018-11-04T17:45:48.680Z,75.80
2018-11-04T17:49:52.856Z,77.33
2018-11-04T17:53:56.775Z,77.56
2018-11-04T17:58:00.918Z,77.06
2018-11-04T18:02:05.041Z,77.57
2018-11-04T18:06:08.977Z,78.25
2018-11-04T18:10:13.837Z,78.21
2018-11-04T18:14:17.807Z,78.03
2018-11-04T18:18:21.696Z,78.23
2018-11-04T18:22:25.812Z,78.70
2018-11-04T18:26:29.822Z,79.48
2018-11-04T18:30:33.736Z,79.64
2018-11-04T18:34:37.666Z,78.45
2018-11-04T18:38:41.597Z,78.37
2018-11-04T18:42:45.887Z,80.53
2018-11-04T18:46:50.018Z,80.34
2018-11-04T18:50:53.906Z,81.22
2018-11-04T18:54:58.081Z,81.02
2018-11-04T18:59:02.037Z,81.09
2018-11-04T19:03:05.931Z,80.29
2018-11-04T19:07:10.259Z,81.37
2018-11-04T19:11:14.431Z,83.00
2018-11-04T19:15:18.272Z,83.05
2018-11-04T19:19:22.210Z,82.69
2018-11-04T19:23:26.488Z,82.71
2018-11-04T19:27:30.759Z,82.44
2018-11-04T19:31:34.722Z,82.18
2018-11-04T19:35:38.852Z,82.14
2018-11-04T19:39:42.846Z,83.21
2018-11-04T19:43:46.968Z,82.95
2018-11-04T19:47:50.947Z,84.38
2018-11-04T19:51:55.075Z,84.70
2018-11-04T19:55:59.000Z,83.55
2018-11-04T20:00:03.225Z,84.64
2018-11-04T20:04:07.282Z,85.22
2018-11-04T20:08:11.302Z,85.30
2018-11-04T20:12:20.532Z,85.63
2018-11-04T20:16:24.519Z,85.93
2018-11-04T20:20:28.460Z,85.61
2018-11-04T20:26:42.515Z,85.35
2018-11-04T20:30:46.442Z,85.47
2018-11-04T20:34:50.786Z,85.33
2018-11-04T20:39:00.202Z,86.13
2018-11-04T20:43:05.368Z,85.32
2018-11-04T20:47:10.089Z,85.92
2018-11-04T20:51:14.309Z,85.97
2018-11-04T20:55:18.574Z,85.41
2018-11-04T20:59:22.443Z,86.50
2018-11-04T21:03:27.668Z,87.10
2018-11-04T21:07:32.025Z,87.32
2018-11-04T21:11:36.227Z,87.71
2018-11-04T21:15:40.189Z,87.57
2018-11-04T21:19:44.268Z,87.00
2018-11-04T21:23:48.184Z,86.70
2018-11-04T21:27:52.082Z,88.05
2018-11-04T21:31:56.149Z,87.35
2018-11-04T21:36:00.077Z,88.37
2018-11-04T21:40:04.608Z,88.78
2018-11-04T21:44:08.760Z,88.69
2018-11-04T21:48:12.522Z,88.06
2018-11-04T21:52:16.579Z,87.42
2018-11-04T21:56:20.616Z,88.90
2018-11-04T22:00:24.742Z,88.99
2018-11-04T22:04:28.822Z,89.75
2018-11-04T22:08:32.769Z,89.18
2018-11-04T22:12:36.756Z,89.01
2018-11-04T22:16:40.883Z,89.00
2018-11-04T22:20:44.948Z,89.18
2018-11-04T22:24:48.897Z,88.43
2018-11-04T22:28:52.788Z,89.04
2018-11-04T22:32:56.758Z,89.69
2018-11-04T22:37:00.878Z,88.83
2018-11-04T22:41:04.999Z,88.96
2018-11-04T22:45:10.556Z,89.21
2018-11-04T22:49:14.485Z,88.47
2018-11-04T22:53:18.453Z,89.52
2018-11-04T22:57:23.016Z,89.93
2018-11-04T23:01:27.312Z,89.36
2018-11-04T23:05:31.247Z,90.07
2018-11-04T23:09:35.200Z,89.83
2018-11-04T23:13:39.278Z,89.56
2018-11-04T23:17:43.399Z,89.32
2018-11-04T23:21:48.022Z,89.63
2018-11-04T23:25:51.996Z,90.26
2018-11-04T23:29:56.339Z,90.35
2018-11-04T23:34:00.271Z,91.01
2018-11-04T23:38:05.116Z,91.14
2018-11-04T23:42:09.096Z,91.86
2018-11-04T23:46:13.059Z,92.41
2018-11-04T23:50:17.519Z,92.46
2018-11-04T23:54:21.380Z,92.04
2018-11-04T23:58:25.539Z,92.35
